Flight Track Log - Related Links

Times and Time Zones

All times are in EDT time to prevent confusion due to time zone crossing. See the SWA3054 flight status page for this flight to view local times or setup timezone preferences in your user account.

Time Position Orientation Groundspeed Altitude Reporting Facility
EDT Latitude Longitude Course Direction KTS MPH feet Rate Location/Type
Fri 10:44:23 AM 28.3667 -81.3333 192° South 188 216 3,500  Level Orlando TRACON
Fri 10:45:23 AM 28.3167 -81.3667 210° Southwest 235 270 4,900 1,526 Climbing Orlando TRACON
Fri 10:46:17 AM 28.2500 -81.3833 192° South 248 285 6,400 2,553 Climbing Orlando TRACON
Fri 10:48:31 AM 28.0794 -81.4383 196° South 287 330 12,900 2,969 Climbing Miami Center
Fri 10:49:31 AM 27.9869 -81.4581 191° South 314 361 16,000 1,550 Climbing Miami Center
Fri 10:50:31 AM 27.8942 -81.4872 196° South 340 391 16,000  Level Miami Center
Fri 10:51:31 AM 27.8131 -81.5450 212° Southwest 345 397 16,000 700 Level Miami Center
Fri 10:52:31 AM 27.7183 -81.5692 193° South 345 397 17,400 1,900 Climbing Miami Center
Fri 10:53:31 AM 27.6225 -81.5653 178° South 363 418 19,800 2,800 Climbing Miami Center
Fri 10:54:31 AM 27.5017 -81.5625 179° South 394 453 23,000 2,200 Climbing Miami Center
Fri 10:55:31 AM 27.3931 -81.5581 178° South 394 453 24,200 1,100 Climbing Miami Center
Fri 10:56:31 AM 27.2925 -81.5072 156° South 407 468 25,200 900 Climbing Miami Center
Fri 10:57:31 AM 27.2003 -81.4569 154° Southeast 407 468 26,000 400 Climbing Miami Center
Fri 10:58:31 AM 27.0919 -81.4481 176° South 396 456 26,000  Level Miami Center
Fri 10:59:31 AM 26.9664 -81.4547 183° South 396 456 26,000  Level Miami Center
Fri 11:00:31 AM 26.8536 -81.4594 182° South 410 472 26,000  Level Miami Center
Fri 11:01:31 AM 26.7408 -81.4622 181° South 403 464 26,000  Level Miami Center
Fri 11:02:31 AM 26.6403 -81.4675 183° South 408 470 26,000  Level Miami Center
Fri 11:03:31 AM 26.5150 -81.4719 182° South 403 464 26,000  Level Miami Center
Fri 11:04:31 AM 26.4042 -81.4792 183° South 403 464 26,000  Level Miami Center
Fri 11:05:31 AM 26.2914 -81.4817 181° South 403 464 26,000  Level Miami Center
Fri 11:06:31 AM 26.1806 -81.4867 182° South 403 464 26,000  Level Miami Center
Fri 11:07:31 AM 26.0675 -81.4914 182° South 403 464 26,000  Level Miami Center
Fri 11:08:31 AM 25.9567 -81.4964 182° South 403 464 26,000  Level Miami Center
Fri 11:09:31 AM 25.8439 -81.5014 182° South 403 464 26,000 -1,200 Level Miami Center
Fri 11:10:31 AM 25.7308 -81.5061 182° South 403 464 23,600 -2,400 Descending Miami Center
Fri 11:11:31 AM 25.6200 -81.5111 182° South 403 464 21,200 -2,250 Descending Miami Center
Fri 11:12:31 AM 25.5239 -81.5142 182° South 398 458 19,100 -2,150 Descending Miami Center
Fri 11:13:31 AM 25.4167 -81.5378 191° South 371 427 16,900 -2,100 Descending Miami Center
Fri 11:14:31 AM 25.3217 -81.5686 196° South 359 413 14,900 -2,000 Descending Miami Center
Fri 11:15:31 AM 25.2308 -81.5994 197° South 354 407 12,900 -1,900 Descending Miami Center
Fri 11:16:31 AM 25.1444 -81.6281 197° South 343 395 11,100 -1,350 Descending Miami Center
Fri 11:17:31 AM 25.0697 -81.6758 210° Southwest 325 374 10,200 -1,200 Descending Miami Center
Fri 11:18:31 AM 25.0056 -81.7214 213° Southwest 301 346 8,700 -1,450 Descending Miami Center
Fri 11:19:31 AM 24.9394 -81.7644 211° Southwest 289 333 7,300 -1,400 Descending Miami Center
Fri 11:20:31 AM 24.8775 -81.8078 212° Southwest 279 321 5,900 -1,400 Descending Miami Center
Fri 11:21:31 AM 24.8175 -81.8489 212° Southwest 274 315 4,500 -1,350 Descending Miami Center
Fri 11:22:31 AM 24.7539 -81.8761 201° Southwest 261 300 3,200 -950 Descending Miami Center
Fri 11:23:31 AM 24.6950 -81.8897 192° South 236 272 2,600 -850 Descending Miami Center
Fri 11:24:31 AM 24.6467 -81.8992 190° South 204 235 1,500 -600 Descending Miami Center
Fri 11:25:31 AM 24.6053 -81.8906 169° South 174 200 1,400 -100 Descending Miami Center
Fri 11:27:00 AM 24.5561 -81.7596 126° Southeast  Level Estimated
Fri 11:34:00 AM 24.5561 -81.7596 126° Southeast  Level Estimated
Fri 11:35:00 AM 24.5561 -81.7596 126° Southeast  Level Estimated
Fri 11:36:00 AM 24.5561 -81.7596 126° Southeast  Level Estimated
Fri 11:37:00 AM 24.5561 -81.7596 126° Southeast  Level Estimated

Login

Don't have an account? Register now (free) for customized features, flight alerts, and more!